createdAt,value
2023-05-21T00:01:19.873Z,100381.53
2023-05-21T00:04:22.762Z,100385.03
2023-05-21T00:07:25.541Z,100390.34
2023-05-21T00:10:28.233Z,100389.47
2023-05-21T00:13:30.816Z,100397.38
2023-05-21T00:16:33.607Z,100397.41
2023-05-21T00:19:36.327Z,100395.56
2023-05-21T00:22:40.331Z,100388.50
2023-05-21T00:25:42.897Z,100394.72
2023-05-21T00:28:45.462Z,100387.62
2023-05-21T00:31:48.449Z,100389.47
2023-05-21T00:34:51.060Z,100393.78
2023-05-21T00:37:54.207Z,100391.97
2023-05-21T00:40:56.845Z,100392.84
2023-05-21T00:44:00.451Z,100395.47
2023-05-21T00:47:03.727Z,100391.94
2023-05-21T00:50:06.694Z,100387.56
2023-05-21T00:53:12.587Z,100384.00
2023-05-21T00:56:15.235Z,100382.22
2023-05-21T00:59:17.911Z,100381.34
2023-05-21T01:02:20.836Z,100379.56
2023-05-21T01:05:23.650Z,100389.22
2023-05-21T01:08:27.403Z,100395.34
2023-05-21T01:11:41.314Z,100383.94
2023-05-21T01:14:44.267Z,100382.22
2023-05-21T01:17:47.122Z,100379.53
2023-05-21T01:20:50.290Z,100377.75
2023-05-21T01:23:52.947Z,100376.84
2023-05-21T01:26:56.115Z,100376.84
2023-05-21T01:29:59.525Z,100373.31
2023-05-21T01:33:05.079Z,100381.22
2023-05-21T01:36:28.071Z,100379.50
2023-05-21T01:39:33.812Z,100375.94
2023-05-21T01:42:37.377Z,100375.06
2023-05-21T01:45:40.977Z,100374.16
2023-05-21T01:48:44.126Z,100373.22
2023-05-21T01:51:47.201Z,100378.50
2023-05-21T01:54:51.149Z,100378.50
2023-05-21T01:57:54.637Z,100369.69
2023-05-21T02:00:57.274Z,100374.06
2023-05-21T02:04:00.706Z,100371.38
2023-05-21T02:07:03.213Z,100374.88
2023-05-21T02:10:06.584Z,100374.88
2023-05-21T02:13:08.960Z,100369.56
2023-05-21T02:16:14.865Z,100366.09
2023-05-21T02:19:17.634Z,100366.97
2023-05-21T02:22:20.605Z,100367.81
2023-05-21T02:25:22.964Z,100369.53
2023-05-21T02:28:25.885Z,100363.38
2023-05-21T02:31:28.191Z,100373.91
2023-05-21T02:34:32.247Z,100361.59
2023-05-21T02:37:35.591Z,100369.47
2023-05-21T02:40:38.507Z,100357.09
2023-05-21T02:43:41.100Z,100360.69
2023-05-21T02:46:43.980Z,100361.50
2023-05-21T02:49:47.510Z,100367.59
2023-05-21T02:52:50.696Z,100368.47
2023-05-21T02:55:53.481Z,100369.34
2023-05-21T02:58:56.370Z,100366.69
2023-05-21T03:01:58.718Z,100367.56
2023-05-21T03:05:01.841Z,100372.81
2023-05-21T03:08:04.246Z,100363.16
2023-05-21T03:11:07.633Z,100369.25
2023-05-21T03:14:10.021Z,100369.22
2023-05-21T03:17:17.031Z,100362.22
2023-05-21T03:20:19.491Z,100359.56
2023-05-21T03:23:22.425Z,100354.31
2023-05-21T03:26:27.413Z,100356.03
2023-05-21T03:29:31.210Z,100360.41
2023-05-21T03:32:38.026Z,100354.25
2023-05-21T03:35:42.059Z,100356.94
2023-05-21T03:38:44.518Z,100358.69
2023-05-21T03:41:47.861Z,100363.97
2023-05-21T03:44:51.034Z,100371.00
2023-05-21T03:47:55.403Z,100371.00
2023-05-21T03:50:57.845Z,100369.25
2023-05-21T03:54:01.530Z,100369.25
2023-05-21T03:57:04.236Z,100370.19
2023-05-21T04:00:09.124Z,100375.50
2023-05-21T04:03:18.346Z,100371.09
2023-05-21T04:06:22.831Z,100373.78
2023-05-21T04:09:25.421Z,100377.34
2023-05-21T04:12:28.342Z,100385.28
2023-05-21T04:15:30.712Z,100379.19
2023-05-21T04:18:34.350Z,100381.00
2023-05-21T04:21:37.197Z,100375.78
2023-05-21T04:24:40.610Z,100390.78
2023-05-21T04:27:43.661Z,100383.78
2023-05-21T04:30:47.549Z,100388.19
2023-05-21T04:33:50.732Z,100389.09
2023-05-21T04:36:54.139Z,100382.94
2023-05-21T04:39:57.592Z,100385.56
2023-05-21T04:43:01.960Z,100385.63
2023-05-21T04:46:04.726Z,100385.66
2023-05-21T04:49:07.635Z,100392.75
2023-05-21T04:52:10.573Z,100383.97
2023-05-21T04:55:13.730Z,100385.69
2023-05-21T04:58:18.436Z,100380.41
2023-05-21T05:01:27.207Z,100369.94
2023-05-21T05:04:29.744Z,100370.81
2023-05-21T05:07:32.728Z,100379.69
2023-05-21T05:10:35.281Z,100372.59
2023-05-21T05:13:39.803Z,100370.81
2023-05-21T05:16:43.899Z,100371.03
2023-05-21T05:19:46.855Z,100370.13
2023-05-21T05:22:49.241Z,100366.63
2023-05-21T05:25:53.015Z,100362.22
2023-05-21T05:28:55.408Z,100367.56
2023-05-21T05:31:58.454Z,100366.66
2023-05-21T05:35:02.596Z,100365.81
2023-05-21T05:38:05.858Z,100370.25
2023-05-21T05:41:08.273Z,100359.69
2023-05-21T05:44:11.227Z,100361.47
2023-05-21T05:47:13.695Z,100364.94
2023-05-21T05:50:16.569Z,100363.13
2023-05-21T05:53:18.929Z,100370.22
2023-05-21T05:56:22.005Z,100366.66
2023-05-21T05:59:24.463Z,100360.44
2023-05-21T06:02:31.427Z,100350.69
2023-05-21T06:05:35.530Z,100353.34
2023-05-21T06:08:40.602Z,100355.13
2023-05-21T06:11:43.368Z,100360.38
2023-05-21T06:14:47.416Z,100346.16
2023-05-21T06:17:50.117Z,100350.50
2023-05-21T06:20:53.118Z,100346.06
2023-05-21T06:23:56.398Z,100338.91
2023-05-21T06:26:59.130Z,100338.81
2023-05-21T06:30:01.930Z,100330.72
2023-05-21T06:33:05.664Z,100337.69
2023-05-21T06:36:08.453Z,100323.53
2023-05-21T06:39:11.191Z,100328.72
2023-05-21T06:42:14.303Z,100323.34
2023-05-21T06:45:19.319Z,100328.50
2023-05-21T06:48:22.162Z,100315.91
2023-05-21T06:51:24.816Z,100330.81
2023-05-21T06:54:27.451Z,100328.00
2023-05-21T06:57:30.512Z,100326.03
2023-05-21T07:00:33.163Z,100320.62
2023-05-21T07:03:36.315Z,100310.66
2023-05-21T07:06:39.228Z,100307.78
2023-05-21T07:09:42.309Z,100306.75
2023-05-21T07:12:45.218Z,100311.91
2023-05-21T07:15:47.978Z,100312.53
2023-05-21T07:18:50.911Z,100302.66
2023-05-21T07:21:53.568Z,100303.19
2023-05-21T07:24:56.278Z,100310.16
2023-05-21T07:27:59.748Z,100308.97
2023-05-21T07:31:02.897Z,100298.94
2023-05-21T07:34:06.607Z,100294.19
2023-05-21T07:37:09.393Z,100297.19
2023-05-21T07:40:12.527Z,100297.00
2023-05-21T07:43:15.569Z,100296.31
2023-05-21T07:46:18.237Z,100302.38
2023-05-21T07:49:21.296Z,100309.13
2023-05-21T07:52:24.213Z,100299.62
2023-05-21T07:55:26.872Z,100297.13
2023-05-21T07:58:31.136Z,100301.19
2023-05-21T08:01:34.506Z,100305.37
2023-05-21T08:04:40.865Z,100304.78
2023-05-21T08:07:44.148Z,100298.00
2023-05-21T08:10:47.942Z,100293.03
2023-05-21T08:13:50.946Z,100287.69
2023-05-21T08:16:53.898Z,100294.47
2023-05-21T08:19:56.959Z,100286.75
2023-05-21T08:23:00.612Z,100291.00
2023-05-21T08:26:04.006Z,100289.44
2023-05-21T08:29:07.137Z,100293.09
2023-05-21T08:32:10.146Z,100292.38
2023-05-21T08:35:13.909Z,100295.81
2023-05-21T08:38:17.700Z,100288.09
2023-05-21T08:41:23.427Z,100299.41
2023-05-21T08:44:28.466Z,100286.31
2023-05-21T08:47:33.189Z,100297.66
2023-05-21T08:50:35.847Z,100295.34
2023-05-21T08:53:39.762Z,100299.25
2023-05-21T08:56:47.063Z,100287.00
2023-05-21T08:59:52.484Z,100285.66
2023-05-21T09:02:57.187Z,100296.53
2023-05-21T09:06:00.863Z,100292.53
2023-05-21T09:09:06.825Z,100288.06
2023-05-21T09:12:11.071Z,100285.91
2023-05-21T09:15:13.435Z,100286.78
2023-05-21T09:18:16.837Z,100280.75
2023-05-21T09:21:23.935Z,100288.50
2023-05-21T09:24:30.480Z,100291.34
2023-05-21T09:27:35.349Z,100279.06
2023-05-21T09:30:43.874Z,100277.53
2023-05-21T09:33:50.109Z,100281.28
2023-05-21T09:36:56.701Z,100274.75
2023-05-21T09:39:59.277Z,100273.75
2023-05-21T09:43:02.344Z,100270.03
2023-05-21T09:46:05.396Z,100268.41
2023-05-21T09:49:24.121Z,100282.09
2023-05-21T09:52:28.259Z,100278.81
2023-05-21T09:55:31.393Z,100281.63
2023-05-21T09:58:34.562Z,100276.56
2023-05-21T10:01:38.784Z,100274.81
2023-05-21T10:04:42.451Z,100266.69
2023-05-21T10:07:49.444Z,100274.59
2023-05-21T10:10:52.072Z,100271.13
2023-05-21T10:14:01.035Z,100261.84
2023-05-21T10:17:05.261Z,100263.56
2023-05-21T10:20:08.660Z,100263.09
2023-05-21T10:23:13.041Z,100248.69
2023-05-21T10:26:16.494Z,100241.28
2023-05-21T10:29:19.897Z,100240.53
2023-05-21T10:32:23.063Z,100233.94
2023-05-21T10:35:25.981Z,100242.09
2023-05-21T10:38:29.337Z,100238.72
2023-05-21T10:41:35.891Z,100248.31
2023-05-21T10:44:55.141Z,100244.97
2023-05-21T10:48:16.630Z,100236.38
2023-05-21T10:51:37.792Z,100236.50
2023-05-21T10:54:59.143Z,100231.88
2023-05-21T10:58:34.014Z,100245.50
2023-05-21T11:01:38.158Z,100236.91
2023-05-21T11:04:43.311Z,100229.63
2023-05-21T11:08:02.498Z,100228.53
2023-05-21T11:11:05.222Z,100221.13
2023-05-21T11:14:26.867Z,100224.28
2023-05-21T11:17:39.169Z,100217.53
2023-05-21T11:20:44.894Z,100219.75
2023-05-21T11:23:50.830Z,100212.22
2023-05-21T11:26:58.658Z,100225.00
2023-05-21T11:30:04.181Z,100222.50
2023-05-21T11:33:11.312Z,100215.53
2023-05-21T11:36:14.282Z,100214.34
2023-05-21T11:39:21.928Z,100205.81
2023-05-21T11:42:28.805Z,100210.53
2023-05-21T11:45:32.869Z,100208.94
2023-05-21T11:48:36.748Z,100204.69
2023-05-21T11:51:40.450Z,100206.44
2023-05-21T11:54:48.684Z,100204.28
2023-05-21T11:57:53.023Z,100205.50
2023-05-21T12:00:55.769Z,100202.97
2023-05-21T12:03:58.606Z,100198.81
2023-05-21T12:07:03.893Z,100194.75
2023-05-21T12:10:06.898Z,100200.06
2023-05-21T12:13:10.149Z,100189.34
2023-05-21T12:16:13.019Z,100191.88
2023-05-21T12:19:17.897Z,100181.59
2023-05-21T12:22:21.462Z,100175.75
2023-05-21T12:25:24.245Z,100174.19
2023-05-21T12:28:27.280Z,100175.44
2023-05-21T12:31:30.317Z,100183.13
2023-05-21T12:34:45.752Z,100176.44
2023-05-21T12:37:50.631Z,100170.62
2023-05-21T12:40:53.392Z,100171.31
2023-05-21T12:43:56.033Z,100163.50
2023-05-21T12:47:00.032Z,100162.31
2023-05-21T12:50:04.014Z,100162.81
2023-05-21T12:53:09.102Z,100156.25
2023-05-21T12:56:12.429Z,100149.50
2023-05-21T12:59:17.756Z,100147.41
2023-05-21T13:02:21.834Z,100153.91
2023-05-21T13:05:24.575Z,100143.38
2023-05-21T13:08:27.493Z,100142.31
2023-05-21T13:11:30.243Z,100135.44
2023-05-21T13:14:33.110Z,100132.19
2023-05-21T13:17:35.998Z,100129.34
2023-05-21T13:20:39.022Z,100123.31
2023-05-21T13:23:41.911Z,100123.16
2023-05-21T13:26:44.625Z,100132.81
2023-05-21T13:29:47.221Z,100121.78
2023-05-21T13:32:50.047Z,100113.19
2023-05-21T13:35:52.944Z,100110.59
2023-05-21T13:38:56.497Z,100109.31
2023-05-21T13:41:59.320Z,100114.38
2023-05-21T13:45:02.016Z,100109.69
2023-05-21T13:48:05.205Z,100109.16
2023-05-21T13:51:07.964Z,100112.25
2023-05-21T13:54:11.006Z,100098.16
2023-05-21T13:57:13.639Z,100090.44
2023-05-21T14:00:16.503Z,100098.88
2023-05-21T14:03:19.664Z,100090.22
2023-05-21T14:06:22.431Z,100098.72
2023-05-21T14:09:27.304Z,100100.06
2023-05-21T14:12:29.780Z,100098.28
2023-05-21T14:15:32.801Z,100091.34
2023-05-21T14:18:35.370Z,100100.97
2023-05-21T14:21:38.246Z,100095.44
2023-05-21T14:24:40.777Z,100085.03
2023-05-21T14:27:43.702Z,100095.88
2023-05-21T14:30:46.188Z,100093.09
2023-05-21T14:33:49.219Z,100079.22
2023-05-21T14:36:51.547Z,100076.16
2023-05-21T14:39:54.517Z,100084.22
2023-05-21T14:42:56.817Z,100073.16
2023-05-21T14:45:59.812Z,100078.53
2023-05-21T14:49:03.692Z,100070.44
2023-05-21T14:52:06.826Z,100080.09
2023-05-21T14:55:10.955Z,100073.75
2023-05-21T14:58:13.963Z,100066.09
2023-05-21T15:01:16.416Z,100071.97
2023-05-21T15:04:19.424Z,100068.66
2023-05-21T15:07:21.797Z,100072.31
2023-05-21T15:10:25.622Z,100064.97
2023-05-21T15:13:28.134Z,100069.41
2023-05-21T15:16:31.326Z,100059.97
2023-05-21T15:19:33.796Z,100063.53
2023-05-21T15:22:38.039Z,100063.87
2023-05-21T15:25:40.433Z,100062.44
2023-05-21T15:28:43.595Z,100061.09
2023-05-21T15:31:46.011Z,100061.91
2023-05-21T15:34:49.495Z,100064.37
2023-05-21T15:37:51.922Z,100063.00
2023-05-21T15:40:54.882Z,100059.97
2023-05-21T15:43:57.279Z,100058.41
2023-05-21T15:47:00.457Z,100053.84
2023-05-21T15:50:02.915Z,100060.44
2023-05-21T15:53:05.903Z,100060.56
2023-05-21T15:56:09.155Z,100060.78
2023-05-21T15:59:13.296Z,100063.66
2023-05-21T16:02:15.726Z,100063.28
2023-05-21T16:05:18.685Z,100061.97
2023-05-21T16:08:21.405Z,100067.56
2023-05-21T16:11:25.546Z,100072.25
2023-05-21T16:14:29.400Z,100065.91
2023-05-21T16:17:32.420Z,100069.91
2023-05-21T16:20:35.462Z,100070.03
2023-05-21T16:23:38.896Z,100070.19
2023-05-21T16:26:41.210Z,100076.47
2023-05-21T16:29:44.297Z,100069.72
2023-05-21T16:32:46.741Z,100080.91
2023-05-21T16:35:49.851Z,100074.06
2023-05-21T16:38:52.275Z,100077.00
2023-05-21T16:41:59.590Z,100076.19
2023-05-21T16:45:02.105Z,100078.84
2023-05-21T16:48:05.323Z,100080.63
2023-05-21T16:51:07.696Z,100081.59
2023-05-21T16:54:10.948Z,100079.09
2023-05-21T16:57:13.373Z,100080.22
2023-05-21T17:00:16.478Z,100084.91
2023-05-21T17:03:18.983Z,100087.72
2023-05-21T17:06:23.077Z,100085.09
2023-05-21T17:09:25.449Z,100088.88
2023-05-21T17:12:28.348Z,100092.53
2023-05-21T17:15:31.084Z,100088.22
2023-05-21T17:18:34.031Z,100092.63
2023-05-21T17:21:38.813Z,100091.91
2023-05-21T17:24:41.714Z,100094.72
2023-05-21T17:27:44.038Z,100092.13
2023-05-21T17:30:49.462Z,100090.56
2023-05-21T17:33:52.223Z,100098.72
2023-05-21T17:36:55.632Z,100090.00
2023-05-21T17:39:57.956Z,100088.34
2023-05-21T17:43:01.491Z,100093.03
2023-05-21T17:46:03.867Z,100092.22
2023-05-21T17:49:08.306Z,100087.03
2023-05-21T17:52:10.750Z,100095.09
2023-05-21T17:55:14.449Z,100094.41
2023-05-21T17:58:17.000Z,100099.03
2023-05-21T18:01:20.617Z,100091.13
2023-05-21T18:04:23.518Z,100093.06
2023-05-21T18:07:26.258Z,100096.66
2023-05-21T18:10:29.515Z,100093.19
2023-05-21T18:13:34.526Z,100089.69
2023-05-21T18:16:37.457Z,100095.13
2023-05-21T18:19:40.094Z,100094.37
2023-05-21T18:22:43.515Z,100090.88
2023-05-21T18:25:46.257Z,100088.37
2023-05-21T18:28:49.809Z,100085.75
2023-05-21T18:31:52.547Z,100093.91
2023-05-21T18:34:56.555Z,100097.69
2023-05-21T18:37:59.205Z,100100.59
2023-05-21T18:41:03.440Z,100104.38
2023-05-21T18:44:06.388Z,100106.44
2023-05-21T18:47:09.237Z,100111.94
2023-05-21T18:50:15.504Z,100105.94
2023-05-21T18:53:18.328Z,100103.41
2023-05-21T18:56:21.998Z,100103.47
2023-05-21T18:59:24.637Z,100103.62
2023-05-21T19:02:28.219Z,100110.84
2023-05-21T19:05:31.088Z,100116.25
2023-05-21T19:08:33.781Z,100111.87
2023-05-21T19:11:37.515Z,100114.63
2023-05-21T19:14:44.845Z,100114.75
2023-05-21T19:17:47.613Z,100120.16
2023-05-21T19:20:50.448Z,100129.16
2023-05-21T19:23:54.054Z,100123.94
2023-05-21T19:26:56.786Z,100131.09
2023-05-21T19:29:59.391Z,100138.25
2023-05-21T19:33:02.120Z,100140.12
2023-05-21T19:36:04.936Z,100138.44
2023-05-21T19:39:09.051Z,100147.38
2023-05-21T19:42:11.877Z,100144.78
2023-05-21T19:45:15.661Z,100148.44
2023-05-21T19:48:18.330Z,100139.63
2023-05-21T19:51:21.320Z,100139.66
2023-05-21T19:54:24.304Z,100138.81
2023-05-21T19:57:26.960Z,100137.00
2023-05-21T20:00:29.568Z,100145.87
2023-05-21T20:03:35.984Z,100144.12
2023-05-21T20:06:38.869Z,100144.19
2023-05-21T20:09:42.328Z,100146.91
2023-05-21T20:12:44.631Z,100143.44
2023-05-21T20:15:50.476Z,100140.88
2023-05-21T20:18:56.934Z,100143.56
2023-05-21T20:21:59.953Z,100140.97
2023-05-21T20:25:03.910Z,100146.31
2023-05-21T20:28:08.493Z,100144.63
2023-05-21T20:31:11.560Z,100149.97
2023-05-21T20:34:17.786Z,100144.69
2023-05-21T20:37:21.760Z,100144.72
2023-05-21T20:40:24.847Z,100151.84
2023-05-21T20:43:27.213Z,100140.38
2023-05-21T20:46:31.464Z,100144.84
2023-05-21T20:49:34.083Z,100148.41
2023-05-21T20:52:37.472Z,100142.25
2023-05-21T20:55:44.456Z,100149.34
2023-05-21T20:58:48.999Z,100143.13
2023-05-21T21:01:52.605Z,100150.22
2023-05-21T21:04:56.259Z,100146.63
2023-05-21T21:08:02.652Z,100139.56
2023-05-21T21:11:06.078Z,100138.72
2023-05-21T21:14:08.741Z,100139.56
2023-05-21T21:17:11.669Z,100144.88
2023-05-21T21:20:17.313Z,100148.41
2023-05-21T21:23:20.591Z,100149.34
2023-05-21T21:26:22.991Z,100147.56
2023-05-21T21:29:25.902Z,100150.25
2023-05-21T21:32:28.367Z,100149.37
2023-05-21T21:35:31.320Z,100153.84
2023-05-21T21:38:33.819Z,100158.25
2023-05-21T21:41:36.769Z,100161.81
2023-05-21T21:44:39.396Z,100163.53
2023-05-21T21:47:42.474Z,100159.16
2023-05-21T21:50:44.926Z,100177.78
2023-05-21T21:53:48.207Z,100168.97
2023-05-21T21:56:50.773Z,100180.44
2023-05-21T21:59:53.681Z,100174.25
2023-05-21T22:02:56.864Z,100175.25
2023-05-21T22:05:59.987Z,100166.53
2023-05-21T22:09:02.334Z,100176.31
2023-05-21T22:12:07.769Z,100169.28
2023-05-21T22:15:17.989Z,100164.88
2023-05-21T22:18:28.419Z,100173.78
2023-05-21T22:21:38.664Z,100173.75
2023-05-21T22:24:41.554Z,100172.00
2023-05-21T22:27:43.935Z,100173.81
2023-05-21T22:30:46.968Z,100171.22
2023-05-21T22:33:49.737Z,100183.56
2023-05-21T22:36:52.789Z,100181.88
2023-05-21T22:39:55.357Z,100184.53
2023-05-21T22:42:58.339Z,100178.41
2023-05-21T22:46:01.832Z,100189.00
2023-05-21T22:49:04.808Z,100180.22
2023-05-21T22:52:09.099Z,100180.22
2023-05-21T22:55:12.295Z,100189.97
2023-05-21T22:58:14.606Z,100182.84
2023-05-21T23:01:17.543Z,100173.13
2023-05-21T23:04:28.905Z,100188.16
2023-05-21T23:07:35.513Z,100185.50
2023-05-21T23:10:38.122Z,100174.06
2023-05-21T23:13:41.273Z,100175.87
2023-05-21T23:16:44.039Z,100185.63
2023-05-21T23:19:49.924Z,100194.44
2023-05-21T23:22:52.679Z,100182.97
2023-05-21T23:25:57.717Z,100186.50
2023-05-21T23:29:00.666Z,100195.38
2023-05-21T23:32:05.221Z,100186.56
2023-05-21T23:35:09.308Z,100175.09
2023-05-21T23:38:12.238Z,100184.78
2023-05-21T23:41:14.670Z,100184.81
2023-05-21T23:44:18.589Z,100182.19
2023-05-21T23:47:20.921Z,100186.59
2023-05-21T23:50:24.475Z,100178.69
2023-05-21T23:53:26.953Z,100182.22
2023-05-21T23:56:30.207Z,100176.06
2023-05-21T23:59:32.611Z,100173.41
